Time;durP1;ratioP1;P1;durP2;ratioP2;P2;SDS_P1;SDS_P2;PMS_P1;PMS_P2;Temp;Humidity;BMP_temperature;BMP_pressure;BME280_temperature;BME280_humidity;BME280_pressure;Samples;Min_cycle;Max_cycle;Signal;HPM_P1;HPM_P2
2021/12/04 00:01:36;;;;;;;4.30;1.50;;;;;;;11.27;62.87;101346.11;1853911;77;21046;-60
2021/12/04 00:04:05;;;;;;;3.22;1.60;;;;;;;11.28;61.99;101339.94;1853349;77;21030;-61
2021/12/04 00:06:38;;;;;;;3.60;1.82;;;;;;;11.29;61.82;101326.72;1853608;77;21109;-60
2021/12/04 00:09:05;;;;;;;4.53;1.35;;;;;;;11.26;62.05;101339.98;1853450;77;21137;-59
2021/12/04 00:11:37;;;;;;;3.17;1.27;;;;;;;11.26;62.43;101315.41;1853509;77;21098;-59
2021/12/04 00:14:05;;;;;;;3.65;1.50;;;;;;;11.25;62.53;101315.88;1854317;77;21046;-60
2021/12/04 00:16:34;;;;;;;2.58;1.62;;;;;;;11.23;62.83;101328.67;1854876;77;21204;-59
2021/12/04 00:19:02;;;;;;;2.77;1.30;;;;;;;11.16;62.90;101329.34;1855106;77;21441;-59
2021/12/04 00:21:31;;;;;;;2.90;1.45;;;;;;;11.14;63.30;101305.67;1855084;77;21026;-67
2021/12/04 00:24:00;;;;;;;3.35;1.55;;;;;;;11.09;63.52;101328.67;1854994;77;21045;-60
2021/12/04 00:26:29;;;;;;;2.12;1.32;;;;;;;11.05;63.77;101325.73;1853932;77;21018;-60
2021/12/04 00:28:57;;;;;;;3.77;1.40;;;;;;;11.00;64.04;101328.96;1853459;77;21603;-60
2021/12/04 00:31:27;;;;;;;3.02;1.35;;;;;;;10.98;64.09;101291.26;1853469;77;21548;-58
2021/12/04 00:33:56;;;;;;;1.85;1.65;;;;;;;10.97;64.14;101317.19;1853521;77;21054;-59
2021/12/04 00:50:10;;;;;;;4.72;1.40;;;;;;;11.14;62.62;101296.88;1847286;77;21499;-64
2021/12/04 00:52:39;;;;;;;3.55;1.87;;;;;;;11.17;62.34;101300.75;1845239;77;21464;-62
2021/12/04 00:55:08;;;;;;;4.10;1.77;;;;;;;11.20;62.32;101306.78;1845229;77;21396;-65
2021/12/04 00:57:38;;;;;;;4.70;1.80;;;;;;;11.25;62.08;101306.65;1818429;77;21149;-68
2021/12/04 01:00:09;;;;;;;3.70;1.40;;;;;;;11.30;62.04;101295.93;1815392;78;21157;-69
2021/12/04 01:02:37;;;;;;;4.35;1.25;;;;;;;11.32;62.15;101289.69;1816152;79;21069;-68
2021/12/04 01:05:07;;;;;;;3.92;1.32;;;;;;;11.35;62.19;101294.86;1817557;79;21124;-68
2021/12/04 01:07:35;;;;;;;3.72;1.42;;;;;;;11.34;62.24;101268.55;1819450;78;21050;-68
2021/12/04 01:10:06;;;;;;;4.50;1.32;;;;;;;11.32;62.36;101267.73;1817890;78;21081;-71
2021/12/04 01:12:35;;;;;;;5.25;1.67;;;;;;;11.26;62.49;101246.87;1818795;78;21124;-60
2021/12/04 01:15:05;;;;;;;4.10;1.40;;;;;;;11.21;62.56;101257.55;1817542;79;21121;-62
2021/12/04 01:17:34;;;;;;;1.87;1.47;;;;;;;11.14;62.74;101263.94;1817652;79;21461;-61
2021/12/04 01:20:04;;;;;;;2.50;1.05;;;;;;;11.12;62.74;101265.77;1817541;79;21077;-61
2021/12/04 01:22:33;;;;;;;3.95;2.22;;;;;;;11.10;62.68;101245.19;1817685;79;21167;-59
2021/12/04 01:25:03;;;;;;;2.42;1.45;;;;;;;11.13;62.51;101252.54;1817519;78;21078;-61
2021/12/04 01:27:31;;;;;;;2.37;1.50;;;;;;;11.14;62.40;101247.69;1817541;78;21096;-61
2021/12/04 01:30:00;;;;;;;3.72;1.37;;;;;;;11.16;62.19;101251.13;1818714;78;21045;-61
2021/12/04 01:32:29;;;;;;;2.20;1.45;;;;;;;11.19;62.16;101256.31;1817547;79;21086;-59
2021/12/04 01:34:58;;;;;;;4.05;1.42;;;;;;;11.24;61.97;101261.88;1817494;78;21078;-61
2021/12/04 01:37:27;;;;;;;2.98;1.12;;;;;;;11.29;61.79;101275.30;1817666;78;21026;-62
2021/12/04 01:39:56;;;;;;;3.65;1.42;;;;;;;11.35;61.63;101283.00;1818877;78;21139;-57
2021/12/04 01:42:25;;;;;;;4.55;1.40;;;;;;;11.39;61.57;101277.17;1818157;78;21057;-61
2021/12/04 01:44:53;;;;;;;2.25;1.20;;;;;;;11.44;61.35;101271.75;1817803;79;21078;-60
2021/12/04 01:47:22;;;;;;;2.25;1.20;;;;;;;11.44;61.28;101271.29;1817676;79;21127;-65
2021/12/04 01:49:53;;;;;;;3.30;1.30;;;;;;;11.49;61.06;101263.20;1818066;78;21457;-64
2021/12/04 01:52:22;;;;;;;3.52;1.27;;;;;;;11.51;61.09;101266.21;1817529;79;21065;-64
2021/12/04 01:54:51;;;;;;;3.05;1.27;;;;;;;11.53;61.05;101263.06;1817796;78;21479;-64
2021/12/04 01:57:21;;;;;;;6.37;1.55;;;;;;;11.57;60.93;101275.69;1820242;77;21163;-63
2021/12/04 01:59:51;;;;;;;2.87;1.10;;;;;;;11.65;60.64;101292.56;1817684;79;21054;-62
2021/12/04 02:02:20;;;;;;;2.27;1.22;;;;;;;11.69;60.34;101287.58;1818314;78;21045;-62
2021/12/04 02:04:49;;;;;;;1.82;1.00;;;;;;;11.72;60.30;101274.28;1818929;78;21505;-62
2021/12/04 02:07:20;;;;;;;4.12;1.40;;;;;;;11.72;60.21;101267.69;1817704;78;21543;-62
2021/12/04 02:09:49;;;;;;;6.20;1.47;;;;;;;11.69;60.24;101275.70;1817701;79;21030;-62
2021/12/04 02:12:17;;;;;;;3.02;1.77;;;;;;;11.65;60.29;101267.50;1817619;79;21114;-63
2021/12/04 02:14:46;;;;;;;3.92;1.22;;;;;;;11.62;60.19;101269.80;1817757;78;21156;-62
2021/12/04 02:17:15;;;;;;;2.83;1.07;;;;;;;11.64;60.36;101267.08;1817932;78;21183;-62
2021/12/04 02:19:48;;;;;;;4.85;1.27;;;;;;;11.66;60.37;101267.92;1818155;78;21129;-62
2021/12/04 02:22:17;;;;;;;2.37;1.30;;;;;;;11.70;60.19;101282.72;1818474;78;21065;-61
2021/12/04 02:24:46;;;;;;;3.52;1.20;;;;;;;11.71;60.03;101285.30;1817876;78;21059;-62
2021/12/04 02:27:15;;;;;;;3.10;1.20;;;;;;;11.70;60.02;101286.67;1817691;78;21524;-62
2021/12/04 02:29:47;;;;;;;3.75;1.30;;;;;;;11.62;60.08;101279.03;1819326;78;21049;-60
2021/12/04 02:32:19;;;;;;;3.87;1.15;;;;;;;11.54;60.26;101275.31;1817645;79;21112;-60
2021/12/04 02:34:48;;;;;;;1.92;1.10;;;;;;;11.45;60.35;101255.86;1818822;78;21492;-60
2021/12/04 02:37:17;;;;;;;4.62;1.35;;;;;;;11.42;60.48;101250.70;1818148;78;21058;-60
2021/12/04 02:39:55;;;;;;;3.72;1.27;;;;;;;11.38;60.48;101251.73;1817947;78;21497;-60
2021/12/04 02:42:23;;;;;;;4.25;1.12;;;;;;;11.38;60.18;101250.41;1816320;79;21058;-62
2021/12/04 02:44:52;;;;;;;2.02;1.17;;;;;;;11.40;59.34;101250.75;1817750;78;21123;-61
2021/12/04 02:47:21;;;;;;;2.22;0.90;;;;;;;11.50;58.98;101243.37;1818412;78;21756;-60
2021/12/04 02:49:50;;;;;;;4.95;1.15;;;;;;;11.61;58.36;101239.05;1817702;78;21530;-61
2021/12/04 02:52:19;;;;;;;4.40;0.90;;;;;;;11.65;58.49;101236.70;1817640;79;21547;-65
2021/12/04 02:54:49;;;;;;;2.27;0.88;;;;;;;11.69;57.46;101241.41;1817979;78;21465;-60
2021/12/04 02:57:20;;;;;;;5.05;1.05;;;;;;;11.73;57.57;101246.97;1818208;78;21555;-60
2021/12/04 02:59:50;;;;;;;3.27;1.05;;;;;;;11.74;57.42;101252.66;1817517;76;21172;-59
2021/12/04 03:02:23;;;;;;;2.08;0.88;;;;;;;11.72;57.67;101261.09;1817598;77;21074;-59
2021/12/04 03:04:53;;;;;;;;;;;;;;;11.70;57.63;101261.61;1820307;79;21022;-61
2021/12/04 03:07:42;;;;;;;1.47;0.90;;;;;;;11.67;57.67;101260.39;1817870;78;20146;-61
2021/12/04 03:10:11;;;;;;;10.80;1.32;;;;;;;11.66;57.78;101256.05;1845053;77;21127;-60
2021/12/04 03:12:41;;;;;;;2.90;1.15;;;;;;;11.63;57.97;101254.83;1797837;79;21080;-62
2021/12/04 03:15:10;;;;;;;2.12;1.02;;;;;;;11.61;58.13;101255.34;1797941;80;21142;-60
2021/12/04 03:17:39;;;;;;;4.45;1.10;;;;;;;11.57;58.03;101255.44;1797945;78;21060;-61
2021/12/04 03:20:10;;;;;;;7.20;0.90;;;;;;;11.57;58.10;101255.91;1797790;80;21174;-60
2021/12/04 03:22:44;;;;;;;4.35;1.10;;;;;;;11.58;58.02;101267.73;1797931;79;21126;-60
2021/12/04 03:25:16;;;;;;;2.30;1.07;;;;;;;11.61;57.82;101252.23;1798183;80;21135;-60
2021/12/04 03:27:47;;;;;;;4.87;1.25;;;;;;;11.67;57.74;101255.97;1797995;78;21212;-60
2021/12/04 03:31:02;;;;;;;3.10;0.90;;;;;;;11.67;57.85;101256.44;1797828;79;21208;-61
2021/12/04 03:35:16;;;;;;;5.20;1.30;;;;;;;11.61;57.89;101252.23;1776666;78;21169;-61
2021/12/04 03:41:06;;;;;;;3.30;1.20;;;;;;;11.46;58.30;101268.14;1798036;80;21051;-59
2021/12/04 03:43:32;;;;;;;2.62;1.15;;;;;;;11.40;58.60;101268.36;1796834;79;21087;-60
2021/12/04 03:46:06;;;;;;;3.22;1.15;;;;;;;11.35;58.88;101273.77;1798062;80;21075;-59
2021/12/04 03:51:07;;;;;;;3.33;1.35;;;;;;;11.35;59.60;101267.64;1797924;80;21059;-59
2021/12/04 03:53:37;;;;;;;5.00;1.50;;;;;;;11.36;59.69;101271.98;1797917;80;21142;-59
2021/12/04 03:56:09;;;;;;;2.27;1.22;;;;;;;11.33;59.69;101276.06;1798018;80;21051;-59
2021/12/04 03:58:37;;;;;;;8.40;1.80;;;;;;;11.31;59.86;101284.48;1798052;80;21142;-59
2021/12/04 04:01:07;;;;;;;6.42;1.55;;;;;;;11.27;59.91;101279.77;1797998;79;21498;-59
2021/12/04 04:03:36;;;;;;;1.52;0.98;;;;;;;11.23;60.12;101275.95;1797919;79;21127;-61
2021/12/04 04:06:05;;;;;;;4.03;1.50;;;;;;;11.23;60.38;101268.05;1797906;80;21063;-61
2021/12/04 04:08:33;;;;;;;2.35;1.30;;;;;;;11.34;60.30;101271.19;1801578;77;21561;-60
2021/12/04 04:11:03;;;;;;;8.58;1.47;;;;;;;11.40;60.17;101263.09;1798808;80;21552;-60
2021/12/04 04:13:32;;;;;;;7.25;1.40;;;;;;;11.41;60.09;101250.29;1830288;78;21050;-59
2021/12/04 04:16:01;;;;;;;2.08;0.93;;;;;;;11.40;60.08;101247.27;1830208;78;21050;-60
2021/12/04 04:18:31;;;;;;;4.35;1.45;;;;;;;11.38;60.00;101242.50;1830012;77;21493;-61
2021/12/04 04:21:00;;;;;;;3.20;1.17;;;;;;;11.42;59.98;101232.69;1830304;78;21023;-60
2021/12/04 04:23:29;;;;;;;2.67;1.27;;;;;;;11.44;59.89;101239.65;1830237;78;21038;-59
2021/12/04 04:25:58;;;;;;;5.20;1.60;;;;;;;11.43;59.75;101244.50;1830357;78;21047;-61
2021/12/04 04:28:27;;;;;;;2.95;1.35;;;;;;;11.44;59.71;101246.23;1830277;78;21113;-60
2021/12/04 04:30:55;;;;;;;5.12;1.17;;;;;;;11.44;59.66;101251.52;1830163;78;21036;-59
2021/12/04 04:33:24;;;;;;;5.47;1.27;;;;;;;11.45;59.60;101251.90;1830311;78;21054;-59
2021/12/04 04:36:18;;;;;;;4.65;1.20;;;;;;;11.51;59.47;101250.39;1830178;78;21110;-59
2021/12/04 04:39:11;;;;;;;3.40;1.57;;;;;;;11.50;59.45;101242.06;1829386;78;21050;-60
2021/12/04 05:01:12;;;;;;;5.08;1.45;;;;;;;11.39;59.20;101275.38;1830096;78;21081;-59
2021/12/04 05:11:46;;;;;;;5.30;1.50;;;;;;;11.78;57.18;101268.78;1830169;78;21042;-60
2021/12/04 05:14:19;;;;;;;11.12;1.47;;;;;;;11.82;56.89;101265.58;1830450;78;21069;-60
2021/12/04 05:16:50;;;;;;;8.03;1.92;;;;;;;11.88;56.67;101254.36;1830133;78;21129;-60
2021/12/04 05:19:26;;;;;;;12.90;1.35;;;;;;;11.96;56.47;101256.75;1829245;77;21133;-59
2021/12/04 05:21:44;;;;;;;14.80;1.65;;;;;;;12.05;56.02;101255.09;1830384;78;21055;-60
2021/12/04 05:24:12;;;;;;;4.97;1.17;;;;;;;12.18;55.14;101254.17;1830191;78;21062;-60
2021/12/04 05:26:41;;;;;;;8.03;1.65;;;;;;;12.29;54.89;101253.77;1830225;78;21022;-60
2021/12/04 05:29:10;;;;;;;5.70;1.30;;;;;;;12.46;54.32;101254.44;1830140;78;21062;-60
2021/12/04 05:31:39;;;;;;;4.58;1.65;;;;;;;12.59;53.82;101258.79;1830198;78;21051;-60
2021/12/04 05:34:07;;;;;;;2.35;1.15;;;;;;;12.80;52.82;101235.92;1830200;78;21018;-60
2021/12/04 05:36:36;;;;;;;7.37;1.80;;;;;;;13.00;52.25;101230.68;1830142;78;21022;-59
2021/12/04 05:39:06;;;;;;;5.85;1.12;;;;;;;13.24;51.53;101238.08;1830169;78;21042;-59
2021/12/04 05:41:36;;;;;;;12.73;1.65;;;;;;;13.47;51.33;101235.79;1830143;78;21117;-59
2021/12/04 05:44:08;;;;;;;12.78;1.00;;;;;;;13.96;51.07;101240.72;1830108;78;21580;-58
2021/12/04 05:46:46;;;;;;;3.27;1.32;;;;;;;14.40;49.99;101239.58;1830151;78;21137;-57
2021/12/04 05:49:21;;;;;;;4.92;1.00;;;;;;;14.81;49.72;101236.76;1830230;78;21085;-59
2021/12/04 05:52:06;;;;;;;6.17;1.40;;;;;;;15.36;48.81;101251.27;1830271;77;21148;-59
2021/12/04 05:54:45;;;;;;;7.20;1.47;;;;;;;15.81;48.29;101244.53;1830036;78;21027;-59
2021/12/04 05:57:03;;;;;;;7.90;1.75;;;;;;;16.21;46.59;101242.84;1830265;78;21121;-59
2021/12/04 05:59:32;;;;;;;5.50;2.05;;;;;;;16.53;46.07;101236.23;1830196;78;21019;-62
2021/12/04 06:02:01;;;;;;;5.97;1.75;;;;;;;16.95;45.48;101236.95;1830276;78;21046;-62
2021/12/04 06:04:30;;;;;;;5.60;1.42;;;;;;;17.29;44.16;101239.44;1830087;78;21058;-62
2021/12/04 06:06:59;;;;;;;3.00;1.40;;;;;;;17.51;43.59;101237.67;1830047;78;21113;-62
2021/12/04 06:09:28;;;;;;;15.25;2.10;;;;;;;17.74;43.30;101248.25;1830070;78;21054;-61
2021/12/04 06:12:00;;;;;;;3.27;1.50;;;;;;;18.07;43.41;101232.02;1853080;77;21090;-61
2021/12/04 06:14:27;;;;;;;5.15;1.60;;;;;;;18.31;43.10;101228.30;1854218;77;21074;-61
2021/12/04 06:16:56;;;;;;;2.90;1.40;;;;;;;18.67;42.42;101226.02;1854239;77;21124;-60
2021/12/04 06:22:37;;;;;;;3.40;1.20;;;;;;;18.68;41.72;101225.03;1854117;77;21551;-59
2021/12/04 06:24:43;;;;;;;6.53;1.98;;;;;;;18.52;42.38;101226.53;1854336;77;21047;-59
2021/12/04 06:27:12;;;;;;;8.38;1.60;;;;;;;18.72;42.59;101218.57;1854442;77;21121;-59
2021/12/04 06:29:41;;;;;;;5.00;1.70;;;;;;;19.13;42.47;101212.80;1854279;77;21125;-60
2021/12/04 06:32:10;;;;;;;3.10;1.50;;;;;;;19.13;42.29;101218.98;1854435;77;21047;-59
2021/12/04 06:34:38;;;;;;;3.37;1.62;;;;;;;19.46;42.19;101224.33;1854456;77;21124;-58
2021/12/04 06:37:07;;;;;;;7.40;1.87;;;;;;;19.71;41.65;101222.61;1854461;77;21149;-59
2021/12/04 06:39:36;;;;;;;12.50;2.27;;;;;;;19.75;41.21;101210.77;1854339;77;21547;-59
2021/12/04 06:42:06;;;;;;;8.28;1.80;;;;;;;19.90;40.90;101204.83;1854381;77;21030;-60
2021/12/04 06:44:35;;;;;;;5.15;1.92;;;;;;;19.79;41.25;101197.56;1854312;77;21536;-58
2021/12/04 06:47:04;;;;;;;7.08;2.17;;;;;;;19.78;41.20;101185.19;1854493;77;21540;-61
2021/12/04 06:49:37;;;;;;;5.72;1.70;;;;;;;19.37;41.84;101175.56;1854359;77;21505;-61
2021/12/04 06:52:07;;;;;;;5.62;2.02;;;;;;;19.41;42.03;101187.73;1854323;76;21077;-60
2021/12/04 06:54:48;;;;;;;7.83;1.95;;;;;;;19.80;41.82;101184.59;1854397;77;21067;-59
2021/12/04 06:57:09;;;;;;;4.47;1.60;;;;;;;19.97;40.97;101200.75;1854202;77;21082;-59
2021/12/04 06:59:38;;;;;;;4.72;1.22;;;;;;;19.95;41.02;101192.84;1854327;75;21055;-58
2021/12/04 07:02:06;;;;;;;5.00;1.82;;;;;;;20.16;41.03;101193.59;1854270;77;21043;-59
2021/12/04 07:04:37;;;;;;;8.85;2.10;;;;;;;20.56;40.58;101195.55;1854262;77;21066;-60
2021/12/04 07:07:07;;;;;;;4.30;1.42;;;;;;;20.64;40.00;101192.36;1854261;77;21021;-58
2021/12/04 07:09:37;;;;;;;3.98;1.60;;;;;;;20.72;39.56;101216.71;1854457;77;21109;-58
2021/12/04 07:12:07;;;;;;;6.45;1.75;;;;;;;20.94;39.46;101199.05;1862627;77;21609;-56
2021/12/04 07:14:36;;;;;;;12.60;2.12;;;;;;;20.99;39.43;101204.43;1866007;77;21058;-56
2021/12/04 07:17:07;;;;;;;6.25;1.65;;;;;;;21.27;39.17;101207.67;1866041;77;21050;-57
2021/12/04 07:19:36;;;;;;;4.72;1.85;;;;;;;21.55;38.52;101194.85;1865920;77;21025;-58
2021/12/04 07:22:07;;;;;;;7.62;1.75;;;;;;;21.85;38.34;101195.58;1865990;77;21783;-56
2021/12/04 07:24:36;;;;;;;4.40;1.70;;;;;;;22.16;37.52;101199.34;1866049;77;21158;-55
2021/12/04 07:27:06;;;;;;;8.88;1.90;;;;;;;22.16;37.11;101198.00;1866033;77;21057;-55
2021/12/04 07:29:35;;;;;;;6.25;1.85;;;;;;;22.00;36.74;101192.66;1866097;77;21058;-54
2021/12/04 07:32:04;;;;;;;5.55;2.00;;;;;;;21.93;37.38;101198.53;1866034;77;21440;-54
2021/12/04 07:34:33;;;;;;;4.00;1.47;;;;;;;22.55;36.97;101198.93;1866016;77;21124;-55
2021/12/04 07:37:03;;;;;;;6.30;2.10;;;;;;;22.21;36.75;101190.94;1865998;77;21081;-57
2021/12/04 07:39:32;;;;;;;3.77;1.77;;;;;;;22.33;36.88;101189.11;1867529;75;21217;-58
2021/12/04 07:42:01;;;;;;;4.22;1.57;;;;;;;22.28;36.72;101201.57;1858442;77;21128;-57
2021/12/04 07:44:29;;;;;;;5.62;1.75;;;;;;;22.45;36.66;101200.19;1856020;77;21070;-58
2021/12/04 07:46:58;;;;;;;5.42;1.70;;;;;;;22.64;36.75;101200.01;1855246;77;21046;-57
2021/12/04 07:49:27;;;;;;;6.90;2.00;;;;;;;22.68;36.38;101196.92;1855774;77;21472;-58
2021/12/04 07:51:56;;;;;;;2.58;1.57;;;;;;;22.25;36.91;101184.34;1859790;76;21065;-57
2021/12/04 07:54:25;;;;;;;4.58;2.15;;;;;;;22.04;37.16;101188.75;1864548;76;21097;-58
2021/12/04 07:56:53;;;;;;;4.58;1.70;;;;;;;21.91;37.48;101183.52;1864018;76;21473;-57
2021/12/04 07:59:23;;;;;;;5.72;1.80;;;;;;;21.96;37.54;101179.48;1860826;76;21151;-57
2021/12/04 08:01:52;;;;;;;3.70;1.47;;;;;;;22.32;37.06;101173.52;1866005;77;21115;-57
2021/12/04 08:04:22;;;;;;;6.30;2.20;;;;;;;22.46;36.58;101159.44;1865572;77;21070;-56
2021/12/04 08:06:52;;;;;;;4.78;1.45;;;;;;;22.87;36.55;101157.33;1862023;77;21128;-57
2021/12/04 08:09:21;;;;;;;3.45;1.95;;;;;;;23.19;35.79;101151.58;1855894;77;21050;-57
2021/12/04 08:11:50;;;;;;;4.10;1.70;;;;;;;23.13;35.71;101155.64;1848452;77;21075;-58
2021/12/04 08:14:20;;;;;;;8.25;2.67;;;;;;;23.13;35.56;101149.77;1827826;78;21066;-55
2021/12/04 08:16:49;;;;;;;5.28;1.70;;;;;;;22.97;35.55;101156.05;1827985;77;21431;-55
2021/12/04 08:19:19;;;;;;;7.05;2.20;;;;;;;22.76;35.98;101148.00;1827841;78;21046;-55
2021/12/04 08:21:48;;;;;;;5.42;1.87;;;;;;;22.31;36.44;101146.30;1827925;77;21087;-55
2021/12/04 08:24:17;;;;;;;2.52;1.52;;;;;;;21.74;37.23;101136.62;1827788;78;21031;-57
2021/12/04 08:26:47;;;;;;;4.20;1.95;;;;;;;20.86;38.62;101113.12;1827830;78;21560;-56
2021/12/04 08:29:15;;;;;;;7.22;1.90;;;;;;;19.87;40.52;101132.42;1827961;77;21539;-57
2021/12/04 08:31:46;;;;;;;4.30;1.62;;;;;;;19.15;41.93;101139.66;1827855;78;21547;-57
2021/12/04 08:34:16;;;;;;;4.47;2.55;;;;;;;18.56;43.25;101131.19;1826229;78;21041;-56
2021/12/04 08:36:45;;;;;;;2.85;1.40;;;;;;;18.40;43.78;101123.34;1823841;77;21465;-58
2021/12/04 08:39:14;;;;;;;2.77;1.40;;;;;;;18.32;44.01;101111.85;1823714;79;21159;-56
2021/12/04 08:41:43;;;;;;;4.87;1.80;;;;;;;17.84;44.93;101104.72;1823779;79;21073;-57
2021/12/04 08:44:12;;;;;;;5.72;1.55;;;;;;;17.45;45.66;101087.16;1823981;77;21066;-57
2021/12/04 08:46:41;;;;;;;5.20;1.62;;;;;;;17.13;46.51;101074.50;1823760;78;21594;-57
2021/12/04 08:49:10;;;;;;;3.22;1.22;;;;;;;17.01;47.17;101055.32;1823769;79;21074;-56
2021/12/04 08:51:41;;;;;;;6.30;1.75;;;;;;;17.04;47.49;101052.45;1823928;79;21188;-57
2021/12/04 08:54:11;;;;;;;5.33;1.82;;;;;;;17.84;46.34;101048.79;1825231;77;21037;-56
2021/12/04 08:56:39;;;;;;;7.97;2.15;;;;;;;18.59;44.64;101046.96;1868862;76;21052;-57
2021/12/04 08:59:10;;;;;;;6.17;2.00;;;;;;;19.27;43.25;101036.03;1869482;76;21144;-57
2021/12/04 09:01:42;;;;;;;3.08;1.72;;;;;;;19.61;42.50;101016.73;1869209;76;21132;-58
2021/12/04 09:04:14;;;;;;;4.70;1.95;;;;;;;19.35;42.37;101031.94;1792700;79;21215;-57
2021/12/04 09:06:43;;;;;;;6.30;1.82;;;;;;;19.21;42.73;101028.94;1869765;75;21538;-57
2021/12/04 09:09:14;;;;;;;6.25;2.17;;;;;;;19.23;42.75;101026.52;1868813;76;21469;-57
2021/12/04 09:11:49;;;;;;;4.70;1.70;;;;;;;19.22;42.91;101030.66;1869138;76;21047;-56
2021/12/04 09:14:19;;;;;;;8.33;2.10;;;;;;;18.97;43.48;101011.01;1868643;76;21141;-58
2021/12/04 09:16:51;;;;;;;4.28;1.47;;;;;;;18.82;44.05;101017.42;1824217;78;21101;-56
2021/12/04 09:19:20;;;;;;;8.95;1.67;;;;;;;19.21;42.47;101013.76;1868081;76;21121;-56
2021/12/04 09:21:49;;;;;;;6.40;1.95;;;;;;;19.40;42.32;101007.98;1869310;76;21020;-56
2021/12/04 09:24:24;;;;;;;2.92;1.52;;;;;;;19.29;42.41;101003.41;1869589;76;21015;-56
2021/12/04 09:29:41;;;;;;;5.35;1.87;;;;;;;18.64;43.08;101000.34;1793359;79;21128;-57
2021/12/04 09:34:51;;;;;;;6.15;1.95;;;;;;;18.66;43.73;100992.25;1833294;77;21002;-59
2021/12/04 10:01:59;;;;;;;3.72;1.12;;;;;;;18.24;43.26;100979.55;1881893;75;21038;-58
2021/12/04 10:13:27;;;;;;;4.67;1.50;;;;;;;18.56;43.27;100961.86;1875443;76;21153;-58
2021/12/04 10:16:04;;;;;;;3.75;1.77;;;;;;;19.08;42.36;100960.89;1852254;77;21132;-59
2021/12/04 10:21:31;;;;;;;3.30;1.17;;;;;;;18.20;42.80;100946.08;1865028;77;21045;-63
2021/12/04 10:23:51;;;;;;;12.13;1.87;;;;;;;18.19;43.03;100934.57;1857539;77;21042;-62
2021/12/04 10:35:10;;;;;;;4.65;1.42;;;;;;;18.18;42.40;100912.86;1893313;74;21002;-59
2021/12/04 10:37:53;;;;;;;2.20;0.98;;;;;;;17.97;42.46;100903.20;1891416;74;21424;-59
2021/12/04 10:40:25;;;;;;;2.87;1.30;;;;;;;17.69;42.25;100903.68;1891857;76;21096;-59
2021/12/04 10:43:00;;;;;;;4.62;1.57;;;;;;;17.44;42.52;100895.60;1891176;76;21081;-60
2021/12/04 10:45:32;;;;;;;2.22;1.10;;;;;;;17.14;43.12;100892.64;1891697;75;21108;-59
2021/12/04 10:48:02;;;;;;;3.17;1.10;;;;;;;16.94;43.58;100889.44;1891829;76;21033;-60
2021/12/04 10:50:56;;;;;;;4.45;1.32;;;;;;;16.87;44.04;100881.95;1891700;76;21238;-59
2021/12/04 10:53:27;;;;;;;2.80;1.00;;;;;;;16.72;44.60;100887.72;1838110;78;21201;-59
2021/12/04 11:03:52;;;;;;;2.27;1.20;;;;;;;17.44;42.42;100870.31;1852356;77;21567;-61
2021/12/04 11:21:16;;;;;;;2.98;1.42;;;;;;;16.59;44.15;100882.31;1852168;77;21081;-61
2021/12/04 11:23:59;;;;;;;4.53;1.42;;;;;;;16.97;43.85;100875.95;1897042;75;21109;-61
2021/12/04 11:37:12;;;;;;;12.98;1.52;;;;;;;16.96;43.56;100852.95;1849508;77;21026;-60
2021/12/04 11:39:57;;;;;;;5.47;1.20;;;;;;;17.02;43.43;100844.20;1849134;77;21038;-60
2021/12/04 11:42:26;;;;;;;2.87;1.07;;;;;;;16.95;43.63;100843.28;1847331;77;21065;-62
2021/12/04 11:44:57;;;;;;;4.12;1.27;;;;;;;16.98;43.63;100847.05;1850166;76;21583;-62
2021/12/04 11:47:24;;;;;;;3.02;1.25;;;;;;;17.03;43.37;100850.77;1856521;75;21139;-62
2021/12/04 11:49:53;;;;;;;3.67;1.12;;;;;;;17.30;43.00;100853.91;1856052;77;21152;-62
2021/12/04 11:52:22;;;;;;;5.33;1.60;;;;;;;17.64;42.43;100847.21;1854972;77;21050;-64
2021/12/04 11:55:00;;;;;;;1.90;1.10;;;;;;;17.70;42.21;100850.78;1855920;76;21453;-64
2021/12/04 11:57:34;;;;;;;4.20;1.10;;;;;;;17.75;42.06;100831.84;1856059;77;21045;-63
2021/12/04 12:00:25;;;;;;;4.05;1.10;;;;;;;17.83;41.63;100826.84;1856062;77;21045;-61
2021/12/04 12:03:12;;;;;;;2.83;1.25;;;;;;;17.81;41.04;100838.56;1852289;77;21074;-61
2021/12/04 12:05:50;;;;;;;4.20;1.25;;;;;;;17.66;40.83;100835.98;1851654;77;21591;-63
2021/12/04 12:08:31;;;;;;;4.15;1.10;;;;;;;17.72;41.22;100830.25;1852344;77;21047;-61
2021/12/04 12:11:14;;;;;;;3.60;1.37;;;;;;;17.55;41.35;100821.20;1852202;77;21117;-61
2021/12/04 12:13:49;;;;;;;7.20;1.42;;;;;;;17.14;41.81;100828.80;1858566;76;21026;-62
2021/12/04 12:16:25;;;;;;;1.62;1.00;;;;;;;16.65;42.92;100830.56;1850184;77;21596;-60
2021/12/04 12:18:57;;;;;;;5.30;1.42;;;;;;;16.32;44.04;100818.43;1852450;77;21083;-61
2021/12/04 12:21:33;;;;;;;4.37;1.42;;;;;;;16.07;44.44;100816.44;1865360;76;21464;-61
2021/12/04 12:27:15;;;;;;;5.25;1.62;;;;;;;15.72;45.34;100824.20;1891759;76;21457;-60
2021/12/04 12:38:38;;;;;;;7.45;1.45;;;;;;;15.22;46.64;100806.80;1839749;78;21549;-63
2021/12/04 12:41:10;;;;;;;7.62;1.92;;;;;;;15.19;46.70;100812.27;1839860;78;21107;-63
2021/12/04 12:43:48;;;;;;;3.47;1.22;;;;;;;15.13;46.96;100816.61;1839788;78;21056;-63
2021/12/04 12:46:17;;;;;;;4.65;0.90;;;;;;;15.06;47.31;100815.61;1872738;76;20989;-63
2021/12/04 12:48:49;;;;;;;3.47;1.42;;;;;;;14.98;47.68;100811.22;1891715;76;21428;-66
2021/12/04 12:51:30;;;;;;;2.60;1.15;;;;;;;14.92;47.83;100814.67;1891007;76;21088;-66
2021/12/04 12:54:01;;;;;;;5.78;1.42;;;;;;;14.88;48.03;100808.69;1891715;76;21476;-60
2021/12/04 12:56:32;;;;;;;2.70;1.15;;;;;;;14.82;48.22;100820.97;1888580;76;21107;-61
2021/12/04 12:59:08;;;;;;;3.67;1.22;;;;;;;14.76;48.43;100817.34;1891700;76;21111;-61
2021/12/04 13:13:35;;;;;;;6.17;1.32;;;;;;;14.44;48.45;100806.66;1855998;77;21516;-60
2021/12/04 13:16:22;;;;;;;3.50;1.25;;;;;;;14.38;48.39;100801.22;1870570;75;21073;-61
2021/12/04 13:18:58;;;;;;;3.67;1.10;;;;;;;14.35;48.33;100801.41;1852417;77;21445;-60
2021/12/04 13:21:28;;;;;;;1.85;1.07;;;;;;;14.28;48.49;100800.87;1878678;76;21156;-61
2021/12/04 13:23:58;;;;;;;2.72;1.30;;;;;;;14.21;48.48;100788.89;1857438;75;21615;-61
2021/12/04 13:26:30;;;;;;;2.27;1.10;;;;;;;14.17;48.29;100790.00;1895592;75;21178;-65
2021/12/04 13:29:01;;;;;;;3.37;1.15;;;;;;;14.14;48.36;100782.69;1843824;77;21555;-64
2021/12/04 13:31:30;;;;;;;2.65;1.42;;;;;;;14.08;48.31;100791.81;1832524;77;21027;-61
2021/12/04 13:33:59;;;;;;;2.35;1.40;;;;;;;14.05;48.24;100777.40;1815260;79;21063;-61
2021/12/04 13:36:30;;;;;;;2.90;1.40;;;;;;;14.04;48.31;100783.17;1815333;79;21167;-62
2021/12/04 13:39:09;;;;;;;2.27;0.78;;;;;;;13.98;48.30;100787.48;1815218;79;21087;-62
2021/12/04 13:41:40;;;;;;;3.33;1.17;;;;;;;13.94;48.32;100784.58;1830554;77;21074;-61
2021/12/04 13:44:12;;;;;;;3.92;1.30;;;;;;;13.93;48.46;100782.88;1891693;76;21037;-61
2021/12/04 13:47:04;;;;;;;3.52;1.77;;;;;;;13.88;48.58;100779.14;1841142;77;21123;-58
2021/12/04 13:49:36;;;;;;;3.40;1.40;;;;;;;13.84;48.79;100782.89;1825519;78;21120;-59
2021/12/04 13:52:07;;;;;;;5.15;1.40;;;;;;;13.79;49.16;100780.94;1857540;75;21641;-59
2021/12/04 13:54:42;;;;;;;3.02;1.37;;;;;;;13.76;49.51;100763.04;1880251;75;21045;-61
2021/12/04 13:57:13;;;;;;;3.85;1.45;;;;;;;13.68;50.57;100779.31;1880413;75;21052;-60
2021/12/04 13:59:42;;;;;;;4.95;1.40;;;;;;;13.61;50.72;100780.56;1880359;76;21041;-62
2021/12/04 14:02:23;;;;;;;3.42;0.98;;;;;;;13.58;50.94;100780.73;1864932;76;21576;-61
2021/12/04 14:05:07;;;;;;;3.33;1.30;;;;;;;13.53;51.24;100785.41;1843709;76;21089;-61
2021/12/04 14:07:36;;;;;;;3.92;1.05;;;;;;;13.48;51.89;100782.97;1817186;79;21567;-61
2021/12/04 14:10:20;;;;;;;4.60;1.40;;;;;;;13.45;52.13;100790.61;1817039;79;21117;-62
2021/12/04 14:12:52;;;;;;;4.85;1.70;;;;;;;13.42;53.13;100785.46;1835209;76;21449;-61
2021/12/04 14:15:23;;;;;;;3.55;1.30;;;;;;;13.39;52.85;100790.92;1825811;78;21042;-63
2021/12/04 14:18:01;;;;;;;4.42;1.25;;;;;;;13.35;53.17;100789.34;1822193;78;21045;-58
2021/12/04 14:20:31;;;;;;;2.85;1.20;;;;;;;13.29;53.61;100782.55;1821896;78;21065;-60
2021/12/04 14:23:00;;;;;;;3.10;1.12;;;;;;;13.36;53.71;100781.81;1821921;78;21112;-64